sensor_id;sensor_type;location;lat;lon;timestamp;P1;durP1;ratioP1;P2;durP2;ratioP2
51438;SDS011;38816;51.142;-0.974;2023-12-28T00:00:09;31.60;;;10.27;;
51438;SDS011;38816;51.142;-0.974;2023-12-28T00:02:34;57.58;;;38.35;;
51438;SDS011;38816;51.142;-0.974;2023-12-28T00:05:00;37.90;;;10.20;;
51438;SDS011;38816;51.142;-0.974;2023-12-28T00:07:25;37.17;;;11.27;;
51438;SDS011;38816;51.142;-0.974;2023-12-28T00:09:51;44.92;;;10.82;;
51438;SDS011;38816;51.142;-0.974;2023-12-28T00:12:18;36.50;;;10.15;;
51438;SDS011;38816;51.142;-0.974;2023-12-28T00:14:44;44.85;;;9.98;;
51438;SDS011;38816;51.142;-0.974;2023-12-28T00:17:09;51.28;;;12.13;;
51438;SDS011;38816;51.142;-0.974;2023-12-28T00:19:35;41.13;;;12.18;;
51438;SDS011;38816;51.142;-0.974;2023-12-28T00:22:00;48.50;;;11.35;;
51438;SDS011;38816;51.142;-0.974;2023-12-28T00:24:26;36.10;;;9.32;;
51438;SDS011;38816;51.142;-0.974;2023-12-28T00:26:51;48.40;;;10.90;;
51438;SDS011;38816;51.142;-0.974;2023-12-28T00:29:17;53.00;;;11.75;;
51438;SDS011;38816;51.142;-0.974;2023-12-28T00:31:42;52.50;;;10.82;;
51438;SDS011;38816;51.142;-0.974;2023-12-28T00:34:08;50.05;;;9.77;;
51438;SDS011;38816;51.142;-0.974;2023-12-28T00:36:33;42.20;;;10.90;;
51438;SDS011;38816;51.142;-0.974;2023-12-28T00:38:59;73.00;;;34.95;;
51438;SDS011;38816;51.142;-0.974;2023-12-28T00:41:24;39.63;;;10.60;;
51438;SDS011;38816;51.142;-0.974;2023-12-28T00:43:50;46.92;;;11.57;;
51438;SDS011;38816;51.142;-0.974;2023-12-28T00:46:15;47.55;;;10.13;;
51438;SDS011;38816;51.142;-0.974;2023-12-28T00:48:41;41.15;;;10.45;;
51438;SDS011;38816;51.142;-0.974;2023-12-28T00:51:06;47.40;;;9.15;;
51438;SDS011;38816;51.142;-0.974;2023-12-28T00:53:32;46.83;;;11.40;;
51438;SDS011;38816;51.142;-0.974;2023-12-28T00:55:58;45.13;;;26.92;;
51438;SDS011;38816;51.142;-0.974;2023-12-28T00:58:23;42.22;;;11.52;;
51438;SDS011;38816;51.142;-0.974;2023-12-28T01:00:49;37.13;;;9.35;;
51438;SDS011;38816;51.142;-0.974;2023-12-28T01:03:18;42.58;;;9.38;;
51438;SDS011;38816;51.142;-0.974;2023-12-28T01:05:44;48.40;;;12.80;;
51438;SDS011;38816;51.142;-0.974;2023-12-28T01:08:12;47.75;;;10.73;;
51438;SDS011;38816;51.142;-0.974;2023-12-28T01:10:38;45.97;;;11.13;;
51438;SDS011;38816;51.142;-0.974;2023-12-28T01:13:03;42.88;;;10.85;;
51438;SDS011;38816;51.142;-0.974;2023-12-28T01:15:29;50.53;;;12.43;;
51438;SDS011;38816;51.142;-0.974;2023-12-28T01:17:54;37.53;;;9.80;;
51438;SDS011;38816;51.142;-0.974;2023-12-28T01:20:20;47.95;;;10.57;;
51438;SDS011;38816;51.142;-0.974;2023-12-28T01:22:45;44.67;;;12.18;;
51438;SDS011;38816;51.142;-0.974;2023-12-28T01:25:11;44.38;;;10.23;;
51438;SDS011;38816;51.142;-0.974;2023-12-28T01:27:36;45.50;;;10.27;;
51438;SDS011;38816;51.142;-0.974;2023-12-28T01:30:02;53.92;;;10.02;;
51438;SDS011;38816;51.142;-0.974;2023-12-28T01:32:27;41.70;;;9.05;;
51438;SDS011;38816;51.142;-0.974;2023-12-28T01:34:53;47.35;;;8.73;;
51438;SDS011;38816;51.142;-0.974;2023-12-28T01:37:18;50.72;;;10.07;;
51438;SDS011;38816;51.142;-0.974;2023-12-28T01:39:44;45.03;;;8.60;;
51438;SDS011;38816;51.142;-0.974;2023-12-28T01:42:09;60.15;;;10.10;;
51438;SDS011;38816;51.142;-0.974;2023-12-28T01:44:35;54.92;;;8.95;;
51438;SDS011;38816;51.142;-0.974;2023-12-28T01:47:00;52.38;;;9.15;;
51438;SDS011;38816;51.142;-0.974;2023-12-28T01:49:29;46.38;;;8.70;;
51438;SDS011;38816;51.142;-0.974;2023-12-28T01:51:55;54.10;;;11.13;;
51438;SDS011;38816;51.142;-0.974;2023-12-28T01:54:21;39.30;;;7.65;;
51438;SDS011;38816;51.142;-0.974;2023-12-28T01:56:47;50.92;;;8.00;;
51438;SDS011;38816;51.142;-0.974;2023-12-28T01:59:14;57.33;;;9.02;;
51438;SDS011;38816;51.142;-0.974;2023-12-28T02:01:40;40.30;;;6.93;;
51438;SDS011;38816;51.142;-0.974;2023-12-28T02:04:06;50.15;;;8.05;;
51438;SDS011;38816;51.142;-0.974;2023-12-28T02:06:32;44.28;;;7.90;;
51438;SDS011;38816;51.142;-0.974;2023-12-28T02:08:58;54.88;;;9.70;;
51438;SDS011;38816;51.142;-0.974;2023-12-28T02:11:23;43.92;;;6.72;;
51438;SDS011;38816;51.142;-0.974;2023-12-28T02:13:49;54.45;;;7.50;;
51438;SDS011;38816;51.142;-0.974;2023-12-28T02:16:22;57.72;;;8.25;;
51438;SDS011;38816;51.142;-0.974;2023-12-28T02:18:50;50.85;;;7.82;;
51438;SDS011;38816;51.142;-0.974;2023-12-28T02:21:18;78.13;;;34.30;;
51438;SDS011;38816;51.142;-0.974;2023-12-28T02:23:48;57.30;;;8.52;;
51438;SDS011;38816;51.142;-0.974;2023-12-28T02:26:17;54.38;;;8.88;;
51438;SDS011;38816;51.142;-0.974;2023-12-28T02:28:44;70.65;;;8.88;;
51438;SDS011;38816;51.142;-0.974;2023-12-28T02:31:13;51.90;;;12.80;;
51438;SDS011;38816;51.142;-0.974;2023-12-28T02:33:53;56.42;;;8.85;;
51438;SDS011;38816;51.142;-0.974;2023-12-28T02:36:23;66.45;;;10.20;;
51438;SDS011;38816;51.142;-0.974;2023-12-28T02:38:51;54.15;;;9.60;;
51438;SDS011;38816;51.142;-0.974;2023-12-28T02:41:18;58.85;;;9.52;;
51438;SDS011;38816;51.142;-0.974;2023-12-28T02:43:46;46.50;;;10.63;;
51438;SDS011;38816;51.142;-0.974;2023-12-28T02:46:13;63.33;;;11.52;;
51438;SDS011;38816;51.142;-0.974;2023-12-28T02:48:39;71.22;;;9.68;;
51438;SDS011;38816;51.142;-0.974;2023-12-28T02:51:05;62.20;;;10.15;;
51438;SDS011;38816;51.142;-0.974;2023-12-28T02:53:31;65.53;;;9.52;;
51438;SDS011;38816;51.142;-0.974;2023-12-28T02:55:56;59.25;;;9.45;;
51438;SDS011;38816;51.142;-0.974;2023-12-28T02:58:22;56.38;;;12.70;;
51438;SDS011;38816;51.142;-0.974;2023-12-28T03:00:47;55.95;;;9.73;;
51438;SDS011;38816;51.142;-0.974;2023-12-28T03:03:14;54.13;;;9.65;;
51438;SDS011;38816;51.142;-0.974;2023-12-28T03:05:39;56.47;;;10.57;;
51438;SDS011;38816;51.142;-0.974;2023-12-28T03:08:06;41.47;;;8.63;;
51438;SDS011;38816;51.142;-0.974;2023-12-28T03:10:31;53.20;;;9.73;;
51438;SDS011;38816;51.142;-0.974;2023-12-28T03:12:57;61.45;;;9.63;;
51438;SDS011;38816;51.142;-0.974;2023-12-28T03:15:23;49.72;;;10.43;;
51438;SDS011;38816;51.142;-0.974;2023-12-28T03:17:48;50.97;;;9.70;;
51438;SDS011;38816;51.142;-0.974;2023-12-28T03:20:14;59.63;;;10.73;;
51438;SDS011;38816;51.142;-0.974;2023-12-28T03:22:39;58.90;;;9.57;;
51438;SDS011;38816;51.142;-0.974;2023-12-28T03:25:05;63.70;;;10.77;;
51438;SDS011;38816;51.142;-0.974;2023-12-28T03:27:32;47.00;;;9.63;;
51438;SDS011;38816;51.142;-0.974;2023-12-28T03:29:57;55.70;;;8.73;;
51438;SDS011;38816;51.142;-0.974;2023-12-28T03:32:23;55.95;;;10.43;;
51438;SDS011;38816;51.142;-0.974;2023-12-28T03:34:48;74.82;;;11.50;;
51438;SDS011;38816;51.142;-0.974;2023-12-28T03:37:14;58.95;;;9.90;;
51438;SDS011;38816;51.142;-0.974;2023-12-28T03:39:39;58.33;;;9.15;;
51438;SDS011;38816;51.142;-0.974;2023-12-28T03:42:05;86.40;;;37.50;;
51438;SDS011;38816;51.142;-0.974;2023-12-28T03:44:31;51.42;;;11.35;;
51438;SDS011;38816;51.142;-0.974;2023-12-28T03:46:56;58.35;;;11.27;;
51438;SDS011;38816;51.142;-0.974;2023-12-28T03:49:22;65.80;;;12.73;;
51438;SDS011;38816;51.142;-0.974;2023-12-28T03:51:48;62.60;;;11.52;;
51438;SDS011;38816;51.142;-0.974;2023-12-28T03:54:15;55.95;;;10.48;;
51438;SDS011;38816;51.142;-0.974;2023-12-28T03:56:41;50.25;;;9.13;;
51438;SDS011;38816;51.142;-0.974;2023-12-28T03:59:08;49.90;;;11.35;;
51438;SDS011;38816;51.142;-0.974;2023-12-28T04:01:34;52.35;;;11.50;;
51438;SDS011;38816;51.142;-0.974;2023-12-28T04:03:59;56.85;;;12.13;;
51438;SDS011;38816;51.142;-0.974;2023-12-28T04:06:25;49.72;;;12.65;;
51438;SDS011;38816;51.142;-0.974;2023-12-28T04:08:50;51.85;;;10.60;;
51438;SDS011;38816;51.142;-0.974;2023-12-28T04:11:16;34.70;;;10.07;;
51438;SDS011;38816;51.142;-0.974;2023-12-28T04:13:42;51.90;;;11.77;;
51438;SDS011;38816;51.142;-0.974;2023-12-28T04:16:07;46.85;;;12.05;;
51438;SDS011;38816;51.142;-0.974;2023-12-28T04:18:34;47.13;;;10.18;;
51438;SDS011;38816;51.142;-0.974;2023-12-28T04:21:00;48.03;;;12.15;;
51438;SDS011;38816;51.142;-0.974;2023-12-28T04:23:25;55.55;;;11.05;;
51438;SDS011;38816;51.142;-0.974;2023-12-28T04:25:51;44.80;;;10.82;;
51438;SDS011;38816;51.142;-0.974;2023-12-28T04:28:16;47.05;;;10.63;;
51438;SDS011;38816;51.142;-0.974;2023-12-28T04:30:42;50.63;;;10.82;;
51438;SDS011;38816;51.142;-0.974;2023-12-28T04:33:07;43.03;;;10.45;;
51438;SDS011;38816;51.142;-0.974;2023-12-28T04:35:32;40.13;;;12.57;;
51438;SDS011;38816;51.142;-0.974;2023-12-28T04:37:58;49.42;;;24.23;;
51438;SDS011;38816;51.142;-0.974;2023-12-28T04:40:23;43.60;;;12.45;;
51438;SDS011;38816;51.142;-0.974;2023-12-28T04:42:49;41.28;;;9.60;;
51438;SDS011;38816;51.142;-0.974;2023-12-28T04:45:14;41.05;;;10.20;;
51438;SDS011;38816;51.142;-0.974;2023-12-28T04:47:40;41.00;;;11.00;;
51438;SDS011;38816;51.142;-0.974;2023-12-28T04:50:06;29.48;;;8.90;;
51438;SDS011;38816;51.142;-0.974;2023-12-28T04:52:32;39.67;;;10.02;;
51438;SDS011;38816;51.142;-0.974;2023-12-28T04:54:58;41.90;;;11.05;;
51438;SDS011;38816;51.142;-0.974;2023-12-28T04:57:23;38.08;;;11.43;;
51438;SDS011;38816;51.142;-0.974;2023-12-28T04:59:51;45.88;;;10.55;;
51438;SDS011;38816;51.142;-0.974;2023-12-28T05:02:17;36.50;;;9.63;;
51438;SDS011;38816;51.142;-0.974;2023-12-28T05:04:42;44.20;;;10.13;;
51438;SDS011;38816;51.142;-0.974;2023-12-28T05:07:08;35.72;;;8.75;;
51438;SDS011;38816;51.142;-0.974;2023-12-28T05:09:33;75.55;;;36.53;;
51438;SDS011;38816;51.142;-0.974;2023-12-28T05:11:59;36.92;;;10.23;;
51438;SDS011;38816;51.142;-0.974;2023-12-28T05:14:24;41.03;;;10.45;;
51438;SDS011;38816;51.142;-0.974;2023-12-28T05:16:50;34.50;;;9.48;;
51438;SDS011;38816;51.142;-0.974;2023-12-28T05:19:16;45.50;;;8.63;;
51438;SDS011;38816;51.142;-0.974;2023-12-28T05:21:41;39.03;;;6.80;;
51438;SDS011;38816;51.142;-0.974;2023-12-28T05:24:07;40.47;;;7.68;;
51438;SDS011;38816;51.142;-0.974;2023-12-28T05:26:32;32.97;;;6.45;;
51438;SDS011;38816;51.142;-0.974;2023-12-28T05:28:58;26.83;;;15.43;;
51438;SDS011;38816;51.142;-0.974;2023-12-28T05:31:23;12.05;;;5.22;;
51438;SDS011;38816;51.142;-0.974;2023-12-28T05:33:49;18.38;;;13.38;;
51438;SDS011;38816;51.142;-0.974;2023-12-28T05:36:14;13.85;;;6.25;;
51438;SDS011;38816;51.142;-0.974;2023-12-28T05:38:40;15.55;;;6.03;;
51438;SDS011;38816;51.142;-0.974;2023-12-28T05:41:05;10.95;;;5.75;;
51438;SDS011;38816;51.142;-0.974;2023-12-28T05:43:31;10.73;;;5.45;;
51438;SDS011;38816;51.142;-0.974;2023-12-28T05:45:56;13.57;;;5.13;;
51438;SDS011;38816;51.142;-0.974;2023-12-28T05:48:22;10.98;;;4.20;;
51438;SDS011;38816;51.142;-0.974;2023-12-28T05:50:47;11.23;;;4.40;;
51438;SDS011;38816;51.142;-0.974;2023-12-28T05:53:14;27.15;;;5.28;;
51438;SDS011;38816;51.142;-0.974;2023-12-28T05:55:40;23.42;;;3.80;;
51438;SDS011;38816;51.142;-0.974;2023-12-28T05:58:06;19.30;;;3.75;;
51438;SDS011;38816;51.142;-0.974;2023-12-28T06:00:31;28.77;;;5.20;;
51438;SDS011;38816;51.142;-0.974;2023-12-28T06:02:57;38.72;;;5.97;;
51438;SDS011;38816;51.142;-0.974;2023-12-28T06:05:22;36.60;;;6.22;;
51438;SDS011;38816;51.142;-0.974;2023-12-28T06:07:48;38.28;;;7.50;;
51438;SDS011;38816;51.142;-0.974;2023-12-28T06:10:13;44.42;;;6.57;;
51438;SDS011;38816;51.142;-0.974;2023-12-28T06:12:39;46.17;;;6.75;;
51438;SDS011;38816;51.142;-0.974;2023-12-28T06:15:05;46.28;;;7.30;;
51438;SDS011;38816;51.142;-0.974;2023-12-28T06:17:31;51.67;;;7.53;;
51438;SDS011;38816;51.142;-0.974;2023-12-28T06:19:56;70.95;;;9.68;;
51438;SDS011;38816;51.142;-0.974;2023-12-28T06:22:22;54.83;;;7.65;;
51438;SDS011;38816;51.142;-0.974;2023-12-28T06:24:50;57.03;;;7.72;;
51438;SDS011;38816;51.142;-0.974;2023-12-28T06:27:16;63.28;;;10.25;;
51438;SDS011;38816;51.142;-0.974;2023-12-28T06:29:41;56.72;;;9.45;;
51438;SDS011;38816;51.142;-0.974;2023-12-28T06:32:07;51.47;;;9.82;;
51438;SDS011;38816;51.142;-0.974;2023-12-28T06:34:32;62.17;;;9.30;;
51438;SDS011;38816;51.142;-0.974;2023-12-28T06:36:57;68.47;;;11.32;;
51438;SDS011;38816;51.142;-0.974;2023-12-28T06:39:23;62.88;;;9.20;;
51438;SDS011;38816;51.142;-0.974;2023-12-28T06:41:48;74.78;;;10.50;;
51438;SDS011;38816;51.142;-0.974;2023-12-28T06:44:14;73.63;;;9.13;;
51438;SDS011;38816;51.142;-0.974;2023-12-28T06:46:40;61.50;;;8.90;;
51438;SDS011;38816;51.142;-0.974;2023-12-28T06:49:06;56.28;;;9.57;;
51438;SDS011;38816;51.142;-0.974;2023-12-28T06:51:32;67.30;;;10.65;;
51438;SDS011;38816;51.142;-0.974;2023-12-28T06:53:58;71.22;;;12.77;;
51438;SDS011;38816;51.142;-0.974;2023-12-28T06:56:24;70.25;;;11.40;;
51438;SDS011;38816;51.142;-0.974;2023-12-28T06:58:50;74.35;;;11.43;;
51438;SDS011;38816;51.142;-0.974;2023-12-28T07:01:18;58.42;;;11.25;;
51438;SDS011;38816;51.142;-0.974;2023-12-28T07:03:44;54.50;;;11.05;;
51438;SDS011;38816;51.142;-0.974;2023-12-28T07:06:09;54.42;;;10.80;;
51438;SDS011;38816;51.142;-0.974;2023-12-28T07:08:35;68.57;;;10.93;;
51438;SDS011;38816;51.142;-0.974;2023-12-28T07:11:01;69.72;;;10.27;;
51438;SDS011;38816;51.142;-0.974;2023-12-28T07:13:27;62.92;;;11.25;;
51438;SDS011;38816;51.142;-0.974;2023-12-28T07:15:53;62.90;;;10.75;;
51438;SDS011;38816;51.142;-0.974;2023-12-28T07:18:18;72.88;;;11.05;;
51438;SDS011;38816;51.142;-0.974;2023-12-28T07:20:44;63.33;;;11.00;;
51438;SDS011;38816;51.142;-0.974;2023-12-28T07:23:10;64.55;;;9.85;;
51438;SDS011;38816;51.142;-0.974;2023-12-28T07:25:35;65.60;;;9.55;;
51438;SDS011;38816;51.142;-0.974;2023-12-28T07:28:01;61.92;;;9.48;;
51438;SDS011;38816;51.142;-0.974;2023-12-28T07:30:27;61.38;;;10.07;;
51438;SDS011;38816;51.142;-0.974;2023-12-28T07:32:52;57.33;;;14.75;;
51438;SDS011;38816;51.142;-0.974;2023-12-28T07:35:18;56.55;;;9.20;;
51438;SDS011;38816;51.142;-0.974;2023-12-28T07:37:44;59.17;;;10.63;;
51438;SDS011;38816;51.142;-0.974;2023-12-28T07:40:11;62.60;;;10.38;;
51438;SDS011;38816;51.142;-0.974;2023-12-28T07:42:37;55.22;;;10.70;;
51438;SDS011;38816;51.142;-0.974;2023-12-28T07:45:03;65.63;;;10.20;;
51438;SDS011;38816;51.142;-0.974;2023-12-28T07:47:28;59.88;;;10.73;;
51438;SDS011;38816;51.142;-0.974;2023-12-28T07:49:54;55.20;;;10.82;;
51438;SDS011;38816;51.142;-0.974;2023-12-28T07:52:20;67.18;;;10.93;;
51438;SDS011;38816;51.142;-0.974;2023-12-28T07:54:45;63.42;;;12.57;;
51438;SDS011;38816;51.142;-0.974;2023-12-28T07:57:11;48.58;;;10.52;;
51438;SDS011;38816;51.142;-0.974;2023-12-28T07:59:36;61.13;;;11.70;;
51438;SDS011;38816;51.142;-0.974;2023-12-28T08:02:02;63.47;;;10.82;;
51438;SDS011;38816;51.142;-0.974;2023-12-28T08:04:27;62.63;;;12.10;;
51438;SDS011;38816;51.142;-0.974;2023-12-28T08:06:53;61.30;;;11.65;;
51438;SDS011;38816;51.142;-0.974;2023-12-28T08:09:19;64.20;;;9.60;;
51438;SDS011;38816;51.142;-0.974;2023-12-28T08:11:44;53.33;;;10.00;;
51438;SDS011;38816;51.142;-0.974;2023-12-28T08:14:10;62.92;;;11.95;;
51438;SDS011;38816;51.142;-0.974;2023-12-28T08:16:36;54.42;;;10.80;;
51438;SDS011;38816;51.142;-0.974;2023-12-28T08:19:01;55.03;;;10.73;;
51438;SDS011;38816;51.142;-0.974;2023-12-28T08:21:27;60.22;;;10.43;;
51438;SDS011;38816;51.142;-0.974;2023-12-28T08:23:53;54.67;;;10.63;;
51438;SDS011;38816;51.142;-0.974;2023-12-28T08:26:18;64.50;;;12.43;;
51438;SDS011;38816;51.142;-0.974;2023-12-28T08:28:44;56.38;;;11.85;;
51438;SDS011;38816;51.142;-0.974;2023-12-28T08:31:10;57.65;;;11.18;;
51438;SDS011;38816;51.142;-0.974;2023-12-28T08:33:36;55.92;;;11.43;;
51438;SDS011;38816;51.142;-0.974;2023-12-28T08:36:04;66.47;;;13.15;;
51438;SDS011;38816;51.142;-0.974;2023-12-28T08:38:30;62.38;;;12.85;;
51438;SDS011;38816;51.142;-0.974;2023-12-28T08:40:56;43.67;;;10.40;;
51438;SDS011;38816;51.142;-0.974;2023-12-28T08:43:21;46.22;;;9.95;;
51438;SDS011;38816;51.142;-0.974;2023-12-28T08:45:47;52.10;;;12.88;;
51438;SDS011;38816;51.142;-0.974;2023-12-28T08:48:12;65.60;;;12.60;;
51438;SDS011;38816;51.142;-0.974;2023-12-28T08:50:38;58.47;;;11.57;;
51438;SDS011;38816;51.142;-0.974;2023-12-28T08:53:03;54.78;;;11.40;;
51438;SDS011;38816;51.142;-0.974;2023-12-28T08:55:30;49.13;;;12.23;;
51438;SDS011;38816;51.142;-0.974;2023-12-28T08:57:55;63.30;;;12.40;;
51438;SDS011;38816;51.142;-0.974;2023-12-28T09:00:20;48.85;;;12.07;;
51438;SDS011;38816;51.142;-0.974;2023-12-28T09:02:46;62.72;;;12.80;;
51438;SDS011;38816;51.142;-0.974;2023-12-28T09:05:12;47.10;;;10.60;;
51438;SDS011;38816;51.142;-0.974;2023-12-28T09:07:37;48.83;;;11.35;;
51438;SDS011;38816;51.142;-0.974;2023-12-28T09:10:08;54.53;;;11.23;;
51438;SDS011;38816;51.142;-0.974;2023-12-28T09:12:37;51.08;;;11.73;;
51438;SDS011;38816;51.142;-0.974;2023-12-28T09:15:05;44.63;;;12.32;;
51438;SDS011;38816;51.142;-0.974;2023-12-28T09:17:35;38.03;;;11.05;;
51438;SDS011;38816;51.142;-0.974;2023-12-28T09:20:00;50.63;;;10.75;;
51438;SDS011;38816;51.142;-0.974;2023-12-28T09:22:31;53.65;;;11.40;;
51438;SDS011;38816;51.142;-0.974;2023-12-28T09:24:56;41.63;;;9.70;;
51438;SDS011;38816;51.142;-0.974;2023-12-28T09:27:22;50.65;;;11.60;;
51438;SDS011;38816;51.142;-0.974;2023-12-28T09:29:47;44.33;;;10.30;;
51438;SDS011;38816;51.142;-0.974;2023-12-28T09:32:13;38.03;;;10.68;;
51438;SDS011;38816;51.142;-0.974;2023-12-28T09:34:39;46.83;;;12.10;;
51438;SDS011;38816;51.142;-0.974;2023-12-28T09:37:05;46.22;;;13.02;;
51438;SDS011;38816;51.142;-0.974;2023-12-28T09:39:30;37.70;;;11.10;;
51438;SDS011;38816;51.142;-0.974;2023-12-28T09:41:59;45.47;;;11.25;;
51438;SDS011;38816;51.142;-0.974;2023-12-28T09:44:34;40.78;;;11.18;;
51438;SDS011;38816;51.142;-0.974;2023-12-28T09:47:06;34.85;;;10.07;;
51438;SDS011;38816;51.142;-0.974;2023-12-28T09:49:32;43.60;;;10.48;;
51438;SDS011;38816;51.142;-0.974;2023-12-28T09:51:59;39.38;;;11.13;;
51438;SDS011;38816;51.142;-0.974;2023-12-28T09:54:25;44.08;;;12.55;;
51438;SDS011;38816;51.142;-0.974;2023-12-28T09:56:50;39.38;;;11.48;;
51438;SDS011;38816;51.142;-0.974;2023-12-28T09:59:17;44.03;;;12.20;;
51438;SDS011;38816;51.142;-0.974;2023-12-28T10:01:45;55.70;;;11.57;;
51438;SDS011;38816;51.142;-0.974;2023-12-28T10:04:13;36.22;;;11.35;;
51438;SDS011;38816;51.142;-0.974;2023-12-28T10:06:40;43.30;;;11.60;;
51438;SDS011;38816;51.142;-0.974;2023-12-28T10:09:06;50.40;;;11.63;;
51438;SDS011;38816;51.142;-0.974;2023-12-28T10:11:33;49.78;;;11.57;;
51438;SDS011;38816;51.142;-0.974;2023-12-28T10:13:58;50.35;;;11.50;;
51438;SDS011;38816;51.142;-0.974;2023-12-28T10:16:24;41.35;;;11.02;;
51438;SDS011;38816;51.142;-0.974;2023-12-28T10:18:49;49.70;;;12.43;;
51438;SDS011;38816;51.142;-0.974;2023-12-28T10:21:15;49.30;;;12.65;;
51438;SDS011;38816;51.142;-0.974;2023-12-28T10:23:40;47.25;;;12.60;;
51438;SDS011;38816;51.142;-0.974;2023-12-28T10:26:06;47.05;;;12.48;;
51438;SDS011;38816;51.142;-0.974;2023-12-28T10:28:34;41.13;;;11.40;;
51438;SDS011;38816;51.142;-0.974;2023-12-28T10:31:00;50.40;;;13.60;;
51438;SDS011;38816;51.142;-0.974;2023-12-28T10:33:26;35.97;;;11.32;;
51438;SDS011;38816;51.142;-0.974;2023-12-28T10:35:51;48.63;;;11.70;;
51438;SDS011;38816;51.142;-0.974;2023-12-28T10:38:18;46.60;;;12.35;;
51438;SDS011;38816;51.142;-0.974;2023-12-28T10:40:45;49.50;;;11.57;;
51438;SDS011;38816;51.142;-0.974;2023-12-28T10:43:16;47.58;;;13.68;;
51438;SDS011;38816;51.142;-0.974;2023-12-28T10:45:48;47.53;;;11.82;;
51438;SDS011;38816;51.142;-0.974;2023-12-28T10:48:19;47.30;;;12.50;;
51438;SDS011;38816;51.142;-0.974;2023-12-28T10:50:54;48.95;;;13.32;;
51438;SDS011;38816;51.142;-0.974;2023-12-28T10:56:19;44.45;;;12.18;;
51438;SDS011;38816;51.142;-0.974;2023-12-28T10:58:57;46.92;;;11.70;;
51438;SDS011;38816;51.142;-0.974;2023-12-28T11:01:42;44.50;;;11.75;;
51438;SDS011;38816;51.142;-0.974;2023-12-28T11:07:03;35.33;;;11.27;;
51438;SDS011;38816;51.142;-0.974;2023-12-28T11:09:31;46.17;;;11.88;;
51438;SDS011;38816;51.142;-0.974;2023-12-28T11:11:59;45.28;;;12.95;;
51438;SDS011;38816;51.142;-0.974;2023-12-28T11:14:27;39.90;;;11.00;;
51438;SDS011;38816;51.142;-0.974;2023-12-28T11:16:53;48.22;;;12.43;;
51438;SDS011;38816;51.142;-0.974;2023-12-28T11:19:19;58.47;;;13.00;;
51438;SDS011;38816;51.142;-0.974;2023-12-28T11:21:47;48.95;;;10.70;;
51438;SDS011;38816;51.142;-0.974;2023-12-28T11:24:15;42.72;;;9.95;;
51438;SDS011;38816;51.142;-0.974;2023-12-28T11:26:42;39.42;;;9.15;;
51438;SDS011;38816;51.142;-0.974;2023-12-28T11:29:07;44.03;;;8.90;;
51438;SDS011;38816;51.142;-0.974;2023-12-28T11:31:33;46.83;;;9.65;;
51438;SDS011;38816;51.142;-0.974;2023-12-28T11:34:00;49.60;;;11.00;;
51438;SDS011;38816;51.142;-0.974;2023-12-28T11:36:37;41.33;;;10.35;;
51438;SDS011;38816;51.142;-0.974;2023-12-28T11:39:08;42.45;;;9.13;;
51438;SDS011;38816;51.142;-0.974;2023-12-28T11:41:38;52.08;;;11.48;;
51438;SDS011;38816;51.142;-0.974;2023-12-28T11:44:03;51.00;;;11.95;;
51438;SDS011;38816;51.142;-0.974;2023-12-28T11:46:34;50.85;;;11.48;;
51438;SDS011;38816;51.142;-0.974;2023-12-28T11:49:07;32.08;;;11.07;;
51438;SDS011;38816;51.142;-0.974;2023-12-28T11:51:34;46.22;;;11.60;;
51438;SDS011;38816;51.142;-0.974;2023-12-28T11:54:05;49.30;;;13.88;;
51438;SDS011;38816;51.142;-0.974;2023-12-28T11:56:31;34.83;;;11.98;;
51438;SDS011;38816;51.142;-0.974;2023-12-28T11:58:58;32.85;;;11.02;;
51438;SDS011;38816;51.142;-0.974;2023-12-28T12:01:24;48.22;;;11.10;;
51438;SDS011;38816;51.142;-0.974;2023-12-28T12:03:50;43.15;;;9.77;;
51438;SDS011;38816;51.142;-0.974;2023-12-28T12:06:15;40.70;;;11.82;;
51438;SDS011;38816;51.142;-0.974;2023-12-28T12:08:44;33.70;;;11.98;;
51438;SDS011;38816;51.142;-0.974;2023-12-28T12:11:11;41.95;;;12.95;;
51438;SDS011;38816;51.142;-0.974;2023-12-28T12:13:36;35.17;;;10.15;;
51438;SDS011;38816;51.142;-0.974;2023-12-28T12:16:02;34.20;;;16.50;;
51438;SDS011;38816;51.142;-0.974;2023-12-28T12:18:31;30.20;;;8.50;;
51438;SDS011;38816;51.142;-0.974;2023-12-28T12:20:57;30.20;;;8.93;;
51438;SDS011;38816;51.142;-0.974;2023-12-28T12:23:23;30.67;;;9.15;;
51438;SDS011;38816;51.142;-0.974;2023-12-28T12:25:49;33.78;;;8.55;;
51438;SDS011;38816;51.142;-0.974;2023-12-28T12:28:15;31.92;;;8.40;;
51438;SDS011;38816;51.142;-0.974;2023-12-28T12:30:40;26.42;;;7.95;;
51438;SDS011;38816;51.142;-0.974;2023-12-28T12:35:40;21.83;;;7.00;;
51438;SDS011;38816;51.142;-0.974;2023-12-28T12:38:05;27.58;;;8.73;;
51438;SDS011;38816;51.142;-0.974;2023-12-28T12:40:31;29.98;;;8.93;;
51438;SDS011;38816;51.142;-0.974;2023-12-28T12:42:57;31.42;;;9.80;;
51438;SDS011;38816;51.142;-0.974;2023-12-28T12:45:24;33.70;;;9.65;;
51438;SDS011;38816;51.142;-0.974;2023-12-28T12:47:51;37.92;;;17.05;;
51438;SDS011;38816;51.142;-0.974;2023-12-28T12:50:17;31.23;;;10.20;;
51438;SDS011;38816;51.142;-0.974;2023-12-28T12:52:43;30.67;;;9.48;;
51438;SDS011;38816;51.142;-0.974;2023-12-28T12:55:13;21.23;;;8.77;;
51438;SDS011;38816;51.142;-0.974;2023-12-28T12:57:39;27.88;;;10.57;;
51438;SDS011;38816;51.142;-0.974;2023-12-28T13:00:05;33.20;;;10.02;;
51438;SDS011;38816;51.142;-0.974;2023-12-28T13:02:35;24.85;;;9.82;;
51438;SDS011;38816;51.142;-0.974;2023-12-28T13:05:01;29.67;;;12.50;;
51438;SDS011;38816;51.142;-0.974;2023-12-28T13:07:29;31.40;;;9.90;;
51438;SDS011;38816;51.142;-0.974;2023-12-28T13:09:55;31.83;;;10.23;;
51438;SDS011;38816;51.142;-0.974;2023-12-28T13:12:20;29.65;;;8.63;;
51438;SDS011;38816;51.142;-0.974;2023-12-28T13:14:46;28.40;;;9.80;;
51438;SDS011;38816;51.142;-0.974;2023-12-28T13:17:11;33.83;;;9.27;;
51438;SDS011;38816;51.142;-0.974;2023-12-28T13:19:37;33.97;;;10.85;;
51438;SDS011;38816;51.142;-0.974;2023-12-28T13:22:03;28.10;;;9.40;;
51438;SDS011;38816;51.142;-0.974;2023-12-28T13:24:30;33.85;;;10.60;;
51438;SDS011;38816;51.142;-0.974;2023-12-28T13:26:56;34.78;;;12.38;;
51438;SDS011;38816;51.142;-0.974;2023-12-28T13:29:22;36.22;;;11.75;;
51438;SDS011;38816;51.142;-0.974;2023-12-28T13:31:48;33.67;;;13.07;;
51438;SDS011;38816;51.142;-0.974;2023-12-28T13:34:15;26.10;;;10.38;;
51438;SDS011;38816;51.142;-0.974;2023-12-28T13:36:41;28.05;;;9.00;;
51438;SDS011;38816;51.142;-0.974;2023-12-28T13:39:09;27.98;;;9.68;;
51438;SDS011;38816;51.142;-0.974;2023-12-28T13:41:37;31.90;;;10.60;;
51438;SDS011;38816;51.142;-0.974;2023-12-28T13:44:03;32.80;;;11.35;;
51438;SDS011;38816;51.142;-0.974;2023-12-28T13:46:30;28.70;;;8.70;;
51438;SDS011;38816;51.142;-0.974;2023-12-28T13:48:56;28.95;;;9.98;;
51438;SDS011;38816;51.142;-0.974;2023-12-28T13:51:22;25.95;;;8.48;;
51438;SDS011;38816;51.142;-0.974;2023-12-28T13:53:50;31.75;;;14.32;;
51438;SDS011;38816;51.142;-0.974;2023-12-28T13:56:16;24.85;;;7.35;;
51438;SDS011;38816;51.142;-0.974;2023-12-28T13:58:41;22.52;;;6.00;;
51438;SDS011;38816;51.142;-0.974;2023-12-28T14:01:09;21.55;;;7.15;;
51438;SDS011;38816;51.142;-0.974;2023-12-28T14:03:35;24.70;;;8.65;;
51438;SDS011;38816;51.142;-0.974;2023-12-28T14:06:00;30.05;;;10.27;;
51438;SDS011;38816;51.142;-0.974;2023-12-28T14:08:26;28.15;;;8.75;;
51438;SDS011;38816;51.142;-0.974;2023-12-28T14:10:51;28.40;;;9.07;;
51438;SDS011;38816;51.142;-0.974;2023-12-28T14:13:17;30.77;;;10.43;;
51438;SDS011;38816;51.142;-0.974;2023-12-28T14:15:42;27.13;;;10.55;;